sensor_id;sensor_type;location;lat;lon;timestamp;P1;durP1;ratioP1;P2;durP2;ratioP2
22697;SDS011;11516;51.612;7.510;2022-09-30T00:01:18;18.75;;;15.30;;
22697;SDS011;11516;51.612;7.510;2022-09-30T00:03:43;20.07;;;15.27;;
22697;SDS011;11516;51.612;7.510;2022-09-30T00:06:09;19.80;;;15.07;;
22697;SDS011;11516;51.612;7.510;2022-09-30T00:08:36;18.75;;;15.57;;
22697;SDS011;11516;51.612;7.510;2022-09-30T00:11:06;19.70;;;15.70;;
22697;SDS011;11516;51.612;7.510;2022-09-30T00:13:37;20.05;;;15.57;;
22697;SDS011;11516;51.612;7.510;2022-09-30T00:16:04;17.83;;;14.50;;
22697;SDS011;11516;51.612;7.510;2022-09-30T00:18:31;19.77;;;14.57;;
22697;SDS011;11516;51.612;7.510;2022-09-30T00:20:57;19.05;;;14.27;;
22697;SDS011;11516;51.612;7.510;2022-09-30T00:23:24;20.13;;;14.68;;
22697;SDS011;11516;51.612;7.510;2022-09-30T00:25:50;18.85;;;14.13;;
22697;SDS011;11516;51.612;7.510;2022-09-30T00:28:21;18.77;;;14.38;;
22697;SDS011;11516;51.612;7.510;2022-09-30T00:30:47;17.60;;;13.90;;
22697;SDS011;11516;51.612;7.510;2022-09-30T00:33:12;16.23;;;12.80;;
22697;SDS011;11516;51.612;7.510;2022-09-30T00:35:38;17.15;;;14.00;;
22697;SDS011;11516;51.612;7.510;2022-09-30T00:38:03;17.17;;;12.97;;
22697;SDS011;11516;51.612;7.510;2022-09-30T00:40:29;16.63;;;13.33;;
22697;SDS011;11516;51.612;7.510;2022-09-30T00:42:55;15.70;;;12.30;;
22697;SDS011;11516;51.612;7.510;2022-09-30T00:45:22;16.88;;;12.38;;
22697;SDS011;11516;51.612;7.510;2022-09-30T00:47:53;15.75;;;12.18;;
22697;SDS011;11516;51.612;7.510;2022-09-30T00:50:37;16.40;;;11.98;;
22697;SDS011;11516;51.612;7.510;2022-09-30T00:55:58;13.90;;;11.52;;
22697;SDS011;11516;51.612;7.510;2022-09-30T00:58:32;13.90;;;11.27;;
22697;SDS011;11516;51.612;7.510;2022-09-30T01:01:02;14.02;;;11.55;;
22697;SDS011;11516;51.612;7.510;2022-09-30T01:03:35;14.48;;;11.57;;
22697;SDS011;11516;51.612;7.510;2022-09-30T01:06:04;16.00;;;11.65;;
22697;SDS011;11516;51.612;7.510;2022-09-30T01:08:31;16.00;;;11.70;;
22697;SDS011;11516;51.612;7.510;2022-09-30T01:11:00;16.42;;;12.18;;
22697;SDS011;11516;51.612;7.510;2022-09-30T01:13:25;15.43;;;11.90;;
22697;SDS011;11516;51.612;7.510;2022-09-30T01:24:46;14.50;;;11.85;;
22697;SDS011;11516;51.612;7.510;2022-09-30T01:30:35;14.50;;;11.45;;
22697;SDS011;11516;51.612;7.510;2022-09-30T01:38:28;12.88;;;11.00;;
22697;SDS011;11516;51.612;7.510;2022-09-30T01:41:03;14.75;;;10.70;;
22697;SDS011;11516;51.612;7.510;2022-09-30T01:48:45;15.32;;;11.32;;
22697;SDS011;11516;51.612;7.510;2022-09-30T01:51:31;13.75;;;10.68;;
22697;SDS011;11516;51.612;7.510;2022-09-30T01:54:16;14.68;;;10.95;;
22697;SDS011;11516;51.612;7.510;2022-09-30T01:56:54;13.73;;;10.90;;
22697;SDS011;11516;51.612;7.510;2022-09-30T01:59:25;13.05;;;10.48;;
22697;SDS011;11516;51.612;7.510;2022-09-30T02:02:05;12.50;;;10.13;;
22697;SDS011;11516;51.612;7.510;2022-09-30T02:04:43;13.55;;;10.27;;
22697;SDS011;11516;51.612;7.510;2022-09-30T02:07:13;11.82;;;9.70;;
22697;SDS011;11516;51.612;7.510;2022-09-30T02:09:49;11.82;;;9.55;;
22697;SDS011;11516;51.612;7.510;2022-09-30T02:12:22;12.93;;;10.32;;
22697;SDS011;11516;51.612;7.510;2022-09-30T02:14:51;13.07;;;10.00;;
22697;SDS011;11516;51.612;7.510;2022-09-30T02:17:23;12.63;;;9.65;;
22697;SDS011;11516;51.612;7.510;2022-09-30T02:19:56;15.68;;;9.60;;
22697;SDS011;11516;51.612;7.510;2022-09-30T02:22:39;12.80;;;9.38;;
22697;SDS011;11516;51.612;7.510;2022-09-30T02:25:11;14.93;;;10.15;;
22697;SDS011;11516;51.612;7.510;2022-09-30T02:27:49;13.25;;;10.02;;
22697;SDS011;11516;51.612;7.510;2022-09-30T02:30:19;13.70;;;9.77;;
22697;SDS011;11516;51.612;7.510;2022-09-30T02:35:18;13.20;;;9.48;;
22697;SDS011;11516;51.612;7.510;2022-09-30T02:37:51;11.60;;;9.23;;
22697;SDS011;11516;51.612;7.510;2022-09-30T02:40:26;12.65;;;9.57;;
22697;SDS011;11516;51.612;7.510;2022-09-30T02:43:15;11.65;;;9.45;;
22697;SDS011;11516;51.612;7.510;2022-09-30T02:48:36;11.35;;;9.10;;
22697;SDS011;11516;51.612;7.510;2022-09-30T02:51:14;10.52;;;8.70;;
22697;SDS011;11516;51.612;7.510;2022-09-30T02:53:51;11.63;;;8.85;;
22697;SDS011;11516;51.612;7.510;2022-09-30T02:59:02;10.60;;;8.50;;
22697;SDS011;11516;51.612;7.510;2022-09-30T03:01:28;9.88;;;8.10;;
22697;SDS011;11516;51.612;7.510;2022-09-30T03:04:04;11.52;;;8.32;;
22697;SDS011;11516;51.612;7.510;2022-09-30T03:06:34;11.00;;;8.85;;
22697;SDS011;11516;51.612;7.510;2022-09-30T03:09:00;11.15;;;8.57;;
22697;SDS011;11516;51.612;7.510;2022-09-30T03:11:27;9.63;;;8.48;;
22697;SDS011;11516;51.612;7.510;2022-09-30T03:28:56;11.70;;;8.85;;
22697;SDS011;11516;51.612;7.510;2022-09-30T03:34:15;12.67;;;8.73;;
22697;SDS011;11516;51.612;7.510;2022-09-30T03:36:54;10.38;;;8.38;;
22697;SDS011;11516;51.612;7.510;2022-09-30T03:42:43;9.65;;;8.32;;
22697;SDS011;11516;51.612;7.510;2022-09-30T03:45:19;12.15;;;8.75;;
22697;SDS011;11516;51.612;7.510;2022-09-30T03:47:52;15.07;;;9.52;;
22697;SDS011;11516;51.612;7.510;2022-09-30T03:50:22;14.30;;;8.85;;
22697;SDS011;11516;51.612;7.510;2022-09-30T03:52:49;12.20;;;8.60;;
22697;SDS011;11516;51.612;7.510;2022-09-30T03:55:15;14.70;;;9.20;;
22697;SDS011;11516;51.612;7.510;2022-09-30T03:57:43;11.63;;;8.50;;
22697;SDS011;11516;51.612;7.510;2022-09-30T04:00:09;9.80;;;8.20;;
22697;SDS011;11516;51.612;7.510;2022-09-30T04:02:36;9.90;;;8.55;;
22697;SDS011;11516;51.612;7.510;2022-09-30T04:05:02;11.60;;;8.47;;
22697;SDS011;11516;51.612;7.510;2022-09-30T04:07:29;9.98;;;8.60;;
22697;SDS011;11516;51.612;7.510;2022-09-30T04:09:55;10.40;;;9.05;;
22697;SDS011;11516;51.612;7.510;2022-09-30T04:12:20;11.60;;;8.63;;
22697;SDS011;11516;51.612;7.510;2022-09-30T04:14:46;12.07;;;8.00;;
22697;SDS011;11516;51.612;7.510;2022-09-30T04:17:11;14.00;;;9.05;;
22697;SDS011;11516;51.612;7.510;2022-09-30T04:19:37;16.57;;;9.37;;
22697;SDS011;11516;51.612;7.510;2022-09-30T04:22:04;15.13;;;8.93;;
22697;SDS011;11516;51.612;7.510;2022-09-30T04:24:33;16.67;;;9.35;;
22697;SDS011;11516;51.612;7.510;2022-09-30T04:26:58;12.88;;;9.20;;
22697;SDS011;11516;51.612;7.510;2022-09-30T04:29:24;15.45;;;9.48;;
22697;SDS011;11516;51.612;7.510;2022-09-30T04:31:51;12.50;;;9.57;;
22697;SDS011;11516;51.612;7.510;2022-09-30T04:34:16;13.67;;;9.53;;
22697;SDS011;11516;51.612;7.510;2022-09-30T04:36:42;13.20;;;10.73;;
22697;SDS011;11516;51.612;7.510;2022-09-30T04:39:08;13.00;;;9.53;;
22697;SDS011;11516;51.612;7.510;2022-09-30T04:41:33;15.02;;;9.25;;
22697;SDS011;11516;51.612;7.510;2022-09-30T04:43:59;11.80;;;9.38;;
22697;SDS011;11516;51.612;7.510;2022-09-30T04:46:30;15.10;;;8.98;;
22697;SDS011;11516;51.612;7.510;2022-09-30T04:48:56;15.65;;;9.60;;
22697;SDS011;11516;51.612;7.510;2022-09-30T04:51:22;15.17;;;9.53;;
22697;SDS011;11516;51.612;7.510;2022-09-30T04:53:47;15.93;;;9.15;;
22697;SDS011;11516;51.612;7.510;2022-09-30T04:56:13;12.90;;;9.25;;
22697;SDS011;11516;51.612;7.510;2022-09-30T04:58:40;12.73;;;9.57;;
22697;SDS011;11516;51.612;7.510;2022-09-30T05:01:07;14.65;;;10.23;;
22697;SDS011;11516;51.612;7.510;2022-09-30T05:03:37;14.88;;;9.40;;
22697;SDS011;11516;51.612;7.510;2022-09-30T05:06:03;14.17;;;9.60;;
22697;SDS011;11516;51.612;7.510;2022-09-30T05:08:30;14.90;;;10.73;;
22697;SDS011;11516;51.612;7.510;2022-09-30T05:10:58;13.77;;;10.52;;
22697;SDS011;11516;51.612;7.510;2022-09-30T05:13:29;15.35;;;10.45;;
22697;SDS011;11516;51.612;7.510;2022-09-30T05:16:00;13.73;;;9.80;;
22697;SDS011;11516;51.612;7.510;2022-09-30T05:18:26;13.67;;;9.40;;
22697;SDS011;11516;51.612;7.510;2022-09-30T05:20:52;14.02;;;9.15;;
22697;SDS011;11516;51.612;7.510;2022-09-30T05:23:19;13.68;;;9.52;;
22697;SDS011;11516;51.612;7.510;2022-09-30T05:25:45;15.82;;;10.00;;
22697;SDS011;11516;51.612;7.510;2022-09-30T05:28:12;13.07;;;9.50;;
22697;SDS011;11516;51.612;7.510;2022-09-30T05:30:38;12.67;;;9.80;;
22697;SDS011;11516;51.612;7.510;2022-09-30T05:33:05;13.80;;;9.75;;
22697;SDS011;11516;51.612;7.510;2022-09-30T05:35:32;13.05;;;9.27;;
22697;SDS011;11516;51.612;7.510;2022-09-30T05:37:58;13.63;;;10.00;;
22697;SDS011;11516;51.612;7.510;2022-09-30T05:40:24;13.73;;;9.75;;
22697;SDS011;11516;51.612;7.510;2022-09-30T05:42:51;14.43;;;10.32;;
22697;SDS011;11516;51.612;7.510;2022-09-30T05:45:16;12.40;;;9.83;;
22697;SDS011;11516;51.612;7.510;2022-09-30T05:47:42;12.07;;;9.00;;
22697;SDS011;11516;51.612;7.510;2022-09-30T05:50:07;14.32;;;9.05;;
22697;SDS011;11516;51.612;7.510;2022-09-30T05:52:33;17.17;;;9.67;;
22697;SDS011;11516;51.612;7.510;2022-09-30T05:54:59;15.20;;;8.85;;
22697;SDS011;11516;51.612;7.510;2022-09-30T05:57:28;13.45;;;8.95;;
22697;SDS011;11516;51.612;7.510;2022-09-30T06:00:18;10.02;;;8.63;;
22697;SDS011;11516;51.612;7.510;2022-09-30T06:02:46;11.82;;;9.10;;
22697;SDS011;11516;51.612;7.510;2022-09-30T06:08:04;13.48;;;9.45;;
22697;SDS011;11516;51.612;7.510;2022-09-30T06:10:40;14.48;;;9.80;;
22697;SDS011;11516;51.612;7.510;2022-09-30T06:16:45;14.10;;;9.50;;
22697;SDS011;11516;51.612;7.510;2022-09-30T06:19:15;12.65;;;9.35;;
22697;SDS011;11516;51.612;7.510;2022-09-30T06:24:33;13.05;;;8.80;;
22697;SDS011;11516;51.612;7.510;2022-09-30T06:27:01;12.65;;;9.45;;
22697;SDS011;11516;51.612;7.510;2022-09-30T06:29:27;14.48;;;10.98;;
22697;SDS011;11516;51.612;7.510;2022-09-30T06:31:52;15.00;;;9.63;;
22697;SDS011;11516;51.612;7.510;2022-09-30T06:34:18;12.70;;;9.00;;
22697;SDS011;11516;51.612;7.510;2022-09-30T06:36:44;14.15;;;9.98;;
22697;SDS011;11516;51.612;7.510;2022-09-30T06:39:09;15.13;;;9.83;;
22697;SDS011;11516;51.612;7.510;2022-09-30T06:41:35;14.77;;;9.23;;
22697;SDS011;11516;51.612;7.510;2022-09-30T06:44:03;14.63;;;9.93;;
22697;SDS011;11516;51.612;7.510;2022-09-30T06:46:29;15.43;;;10.00;;
22697;SDS011;11516;51.612;7.510;2022-09-30T06:48:55;14.10;;;10.43;;
22697;SDS011;11516;51.612;7.510;2022-09-30T06:51:21;15.00;;;10.27;;
22697;SDS011;11516;51.612;7.510;2022-09-30T06:53:50;13.88;;;9.88;;
22697;SDS011;11516;51.612;7.510;2022-09-30T06:56:17;15.32;;;11.05;;
22697;SDS011;11516;51.612;7.510;2022-09-30T06:58:45;18.08;;;10.80;;
22697;SDS011;11516;51.612;7.510;2022-09-30T07:01:11;15.30;;;11.20;;
22697;SDS011;11516;51.612;7.510;2022-09-30T07:03:47;14.65;;;11.05;;
22697;SDS011;11516;51.612;7.510;2022-09-30T07:06:13;14.77;;;11.73;;
22697;SDS011;11516;51.612;7.510;2022-09-30T07:08:40;16.63;;;12.18;;
22697;SDS011;11516;51.612;7.510;2022-09-30T07:11:09;23.57;;;18.03;;
22697;SDS011;11516;51.612;7.510;2022-09-30T07:13:42;24.48;;;18.45;;
22697;SDS011;11516;51.612;7.510;2022-09-30T07:16:10;20.80;;;17.48;;
22697;SDS011;11516;51.612;7.510;2022-09-30T07:18:37;22.92;;;19.38;;
22697;SDS011;11516;51.612;7.510;2022-09-30T07:21:03;25.85;;;19.70;;
22697;SDS011;11516;51.612;7.510;2022-09-30T07:23:29;23.98;;;19.40;;
22697;SDS011;11516;51.612;7.510;2022-09-30T07:25:57;22.73;;;19.25;;
22697;SDS011;11516;51.612;7.510;2022-09-30T07:28:27;22.45;;;18.63;;
22697;SDS011;11516;51.612;7.510;2022-09-30T07:30:56;23.17;;;19.15;;
22697;SDS011;11516;51.612;7.510;2022-09-30T07:33:26;25.30;;;19.60;;
22697;SDS011;11516;51.612;7.510;2022-09-30T07:35:55;23.55;;;17.70;;
22697;SDS011;11516;51.612;7.510;2022-09-30T07:38:25;20.98;;;13.65;;
22697;SDS011;11516;51.612;7.510;2022-09-30T07:43:31;18.87;;;12.63;;
22697;SDS011;11516;51.612;7.510;2022-09-30T07:46:09;18.05;;;13.02;;
22697;SDS011;11516;51.612;7.510;2022-09-30T07:48:39;18.60;;;12.07;;
22697;SDS011;11516;51.612;7.510;2022-09-30T07:51:07;19.90;;;12.63;;
22697;SDS011;11516;51.612;7.510;2022-09-30T07:53:40;15.35;;;11.80;;
22697;SDS011;11516;51.612;7.510;2022-09-30T07:56:07;19.17;;;13.23;;
22697;SDS011;11516;51.612;7.510;2022-09-30T07:58:34;16.60;;;12.43;;
22697;SDS011;11516;51.612;7.510;2022-09-30T08:00:59;16.83;;;13.20;;
22697;SDS011;11516;51.612;7.510;2022-09-30T08:03:25;18.27;;;13.73;;
22697;SDS011;11516;51.612;7.510;2022-09-30T08:05:51;19.60;;;13.63;;
22697;SDS011;11516;51.612;7.510;2022-09-30T08:08:16;16.10;;;12.60;;
22697;SDS011;11516;51.612;7.510;2022-09-30T08:11:02;19.17;;;13.13;;
22697;SDS011;11516;51.612;7.510;2022-09-30T08:13:36;20.03;;;12.90;;
22697;SDS011;11516;51.612;7.510;2022-09-30T08:16:02;15.55;;;12.50;;
22697;SDS011;11516;51.612;7.510;2022-09-30T08:18:28;14.75;;;11.85;;
22697;SDS011;11516;51.612;7.510;2022-09-30T08:23:44;17.65;;;12.43;;
22697;SDS011;11516;51.612;7.510;2022-09-30T08:26:12;17.48;;;12.93;;
22697;SDS011;11516;51.612;7.510;2022-09-30T08:28:46;15.93;;;11.85;;
22697;SDS011;11516;51.612;7.510;2022-09-30T08:33:47;15.52;;;11.88;;
22697;SDS011;11516;51.612;7.510;2022-09-30T08:39:21;17.85;;;12.88;;
22697;SDS011;11516;51.612;7.510;2022-09-30T08:53:32;16.50;;;11.23;;
22697;SDS011;11516;51.612;7.510;2022-09-30T08:56:01;15.27;;;11.75;;
22697;SDS011;11516;51.612;7.510;2022-09-30T08:58:29;14.82;;;11.07;;
22697;SDS011;11516;51.612;7.510;2022-09-30T09:00:58;15.60;;;10.90;;
22697;SDS011;11516;51.612;7.510;2022-09-30T09:03:29;14.73;;;10.25;;
22697;SDS011;11516;51.612;7.510;2022-09-30T09:11:58;18.63;;;12.53;;
22697;SDS011;11516;51.612;7.510;2022-09-30T09:20:39;18.27;;;11.90;;
22697;SDS011;11516;51.612;7.510;2022-09-30T09:23:10;16.42;;;12.18;;
22697;SDS011;11516;51.612;7.510;2022-09-30T09:25:46;15.27;;;11.55;;
22697;SDS011;11516;51.612;7.510;2022-09-30T09:31:26;16.15;;;12.30;;
22697;SDS011;11516;51.612;7.510;2022-09-30T09:37:01;14.55;;;9.98;;
22697;SDS011;11516;51.612;7.510;2022-09-30T09:40:04;17.90;;;9.63;;
22697;SDS011;11516;51.612;7.510;2022-09-30T09:46:41;12.48;;;8.52;;
22697;SDS011;11516;51.612;7.510;2022-09-30T09:51:46;10.48;;;7.50;;
22697;SDS011;11516;51.612;7.510;2022-09-30T10:01:09;11.13;;;7.88;;
22697;SDS011;11516;51.612;7.510;2022-09-30T10:06:41;11.52;;;8.15;;
22697;SDS011;11516;51.612;7.510;2022-09-30T10:12:56;10.27;;;7.00;;
22697;SDS011;11516;51.612;7.510;2022-09-30T10:15:42;8.75;;;6.75;;
22697;SDS011;11516;51.612;7.510;2022-09-30T10:18:21;10.90;;;6.30;;
22697;SDS011;11516;51.612;7.510;2022-09-30T10:21:19;10.55;;;6.75;;
22697;SDS011;11516;51.612;7.510;2022-09-30T10:23:47;8.90;;;5.70;;
22697;SDS011;11516;51.612;7.510;2022-09-30T10:28:48;8.90;;;5.90;;
22697;SDS011;11516;51.612;7.510;2022-09-30T10:36:51;12.23;;;6.10;;
22697;SDS011;11516;51.612;7.510;2022-09-30T10:40:19;8.65;;;6.20;;
22697;SDS011;11516;51.612;7.510;2022-09-30T10:42:28;7.57;;;6.07;;
22697;SDS011;11516;51.612;7.510;2022-09-30T10:44:57;9.77;;;5.28;;
22697;SDS011;11516;51.612;7.510;2022-09-30T10:47:29;13.60;;;7.90;;
22697;SDS011;11516;51.612;7.510;2022-09-30T10:52:36;18.38;;;9.95;;
22697;SDS011;11516;51.612;7.510;2022-09-30T11:07:01;8.67;;;5.20;;
22697;SDS011;11516;51.612;7.510;2022-09-30T11:09:46;6.55;;;4.22;;
22697;SDS011;11516;51.612;7.510;2022-09-30T11:12:19;5.47;;;4.10;;
22697;SDS011;11516;51.612;7.510;2022-09-30T11:15:05;7.05;;;3.85;;
22697;SDS011;11516;51.612;7.510;2022-09-30T11:21:00;5.97;;;4.00;;
22697;SDS011;11516;51.612;7.510;2022-09-30T11:23:35;6.72;;;4.63;;
22697;SDS011;11516;51.612;7.510;2022-09-30T11:26:11;6.82;;;4.10;;
22697;SDS011;11516;51.612;7.510;2022-09-30T11:28:53;5.45;;;4.18;;
22697;SDS011;11516;51.612;7.510;2022-09-30T11:31:44;5.65;;;4.60;;
22697;SDS011;11516;51.612;7.510;2022-09-30T11:34:41;8.83;;;5.43;;
22697;SDS011;11516;51.612;7.510;2022-09-30T11:40:13;7.25;;;4.32;;
22697;SDS011;11516;51.612;7.510;2022-09-30T11:42:55;8.98;;;5.93;;
22697;SDS011;11516;51.612;7.510;2022-09-30T11:48:56;5.40;;;3.77;;
22697;SDS011;11516;51.612;7.510;2022-09-30T11:51:38;6.60;;;4.00;;
22697;SDS011;11516;51.612;7.510;2022-09-30T11:59:37;7.38;;;4.63;;
22697;SDS011;11516;51.612;7.510;2022-09-30T12:02:53;8.00;;;4.20;;
22697;SDS011;11516;51.612;7.510;2022-09-30T12:05:04;6.38;;;3.90;;
22697;SDS011;11516;51.612;7.510;2022-09-30T12:07:46;9.50;;;4.57;;
22697;SDS011;11516;51.612;7.510;2022-09-30T12:10:21;11.00;;;5.63;;
22697;SDS011;11516;51.612;7.510;2022-09-30T12:12:53;8.40;;;4.50;;
22697;SDS011;11516;51.612;7.510;2022-09-30T12:15:24;8.30;;;4.40;;
22697;SDS011;11516;51.612;7.510;2022-09-30T12:17:53;8.30;;;4.50;;
22697;SDS011;11516;51.612;7.510;2022-09-30T12:20:26;7.88;;;4.13;;
22697;SDS011;11516;51.612;7.510;2022-09-30T12:23:13;7.30;;;4.43;;
22697;SDS011;11516;51.612;7.510;2022-09-30T12:25:45;8.60;;;4.50;;
22697;SDS011;11516;51.612;7.510;2022-09-30T12:40:25;10.68;;;5.80;;
22697;SDS011;11516;51.612;7.510;2022-09-30T12:48:48;5.78;;;4.13;;
22697;SDS011;11516;51.612;7.510;2022-09-30T12:51:23;9.83;;;5.27;;
22697;SDS011;11516;51.612;7.510;2022-09-30T12:53:58;5.47;;;3.92;;
22697;SDS011;11516;51.612;7.510;2022-09-30T12:56:43;4.82;;;3.00;;
22697;SDS011;11516;51.612;7.510;2022-09-30T12:59:11;6.45;;;3.70;;
22697;SDS011;11516;51.612;7.510;2022-09-30T13:01:38;3.53;;;2.70;;
22697;SDS011;11516;51.612;7.510;2022-09-30T13:11:45;3.47;;;2.70;;
22697;SDS011;11516;51.612;7.510;2022-09-30T13:14:17;3.97;;;2.70;;
22697;SDS011;11516;51.612;7.510;2022-09-30T13:32:40;7.68;;;3.70;;
22697;SDS011;11516;51.612;7.510;2022-09-30T13:40:39;8.02;;;3.80;;
22697;SDS011;11516;51.612;7.510;2022-09-30T13:43:21;8.15;;;3.42;;
22697;SDS011;11516;51.612;7.510;2022-09-30T13:46:11;6.15;;;2.88;;
22697;SDS011;11516;51.612;7.510;2022-09-30T13:48:55;6.85;;;3.75;;
22697;SDS011;11516;51.612;7.510;2022-09-30T13:51:26;5.93;;;3.58;;
22697;SDS011;11516;51.612;7.510;2022-09-30T13:53:54;6.20;;;3.45;;
22697;SDS011;11516;51.612;7.510;2022-09-30T13:56:26;5.10;;;2.87;;
22697;SDS011;11516;51.612;7.510;2022-09-30T14:04:42;2.33;;;2.00;;
22697;SDS011;11516;51.612;7.510;2022-09-30T14:07:34;4.80;;;3.17;;
22697;SDS011;11516;51.612;7.510;2022-09-30T14:10:33;3.55;;;2.58;;
22697;SDS011;11516;51.612;7.510;2022-09-30T14:19:08;2.95;;;2.03;;
22697;SDS011;11516;51.612;7.510;2022-09-30T14:21:57;5.00;;;2.75;;
22697;SDS011;11516;51.612;7.510;2022-09-30T14:24:28;6.82;;;3.78;;
22697;SDS011;11516;51.612;7.510;2022-09-30T14:27:00;4.85;;;3.17;;
22697;SDS011;11516;51.612;7.510;2022-09-30T14:29:55;3.90;;;2.50;;
22697;SDS011;11516;51.612;7.510;2022-09-30T14:32:42;3.55;;;2.60;;
22697;SDS011;11516;51.612;7.510;2022-09-30T14:37:52;8.68;;;5.00;;
22697;SDS011;11516;51.612;7.510;2022-09-30T14:40:39;9.23;;;5.50;;
22697;SDS011;11516;51.612;7.510;2022-09-30T14:43:13;6.13;;;4.40;;
22697;SDS011;11516;51.612;7.510;2022-09-30T14:45:42;5.45;;;4.00;;
22697;SDS011;11516;51.612;7.510;2022-09-30T14:48:10;4.63;;;3.17;;
22697;SDS011;11516;51.612;7.510;2022-09-30T14:50:56;4.43;;;3.50;;
22697;SDS011;11516;51.612;7.510;2022-09-30T14:53:26;5.57;;;3.57;;
22697;SDS011;11516;51.612;7.510;2022-09-30T14:55:56;5.30;;;3.38;;
22697;SDS011;11516;51.612;7.510;2022-09-30T15:01:05;8.63;;;5.00;;
22697;SDS011;11516;51.612;7.510;2022-09-30T15:03:37;6.47;;;3.88;;
22697;SDS011;11516;51.612;7.510;2022-09-30T15:06:05;5.57;;;3.47;;
22697;SDS011;11516;51.612;7.510;2022-09-30T15:08:44;6.57;;;3.90;;
22697;SDS011;11516;51.612;7.510;2022-09-30T15:11:16;6.43;;;4.17;;
22697;SDS011;11516;51.612;7.510;2022-09-30T15:13:46;4.03;;;3.30;;
22697;SDS011;11516;51.612;7.510;2022-09-30T15:16:23;4.97;;;2.85;;
22697;SDS011;11516;51.612;7.510;2022-09-30T15:18:50;5.47;;;3.10;;
22697;SDS011;11516;51.612;7.510;2022-09-30T15:21:17;4.35;;;3.47;;
22697;SDS011;11516;51.612;7.510;2022-09-30T15:23:45;2.90;;;2.60;;
22697;SDS011;11516;51.612;7.510;2022-09-30T15:26:16;4.07;;;2.72;;
22697;SDS011;11516;51.612;7.510;2022-09-30T15:28:43;3.97;;;2.70;;
22697;SDS011;11516;51.612;7.510;2022-09-30T15:31:20;8.03;;;4.97;;
22697;SDS011;11516;51.612;7.510;2022-09-30T15:34:00;4.38;;;3.25;;
22697;SDS011;11516;51.612;7.510;2022-09-30T15:36:40;9.27;;;5.90;;
22697;SDS011;11516;51.612;7.510;2022-09-30T15:39:19;7.75;;;5.38;;
22697;SDS011;11516;51.612;7.510;2022-09-30T15:42:11;5.05;;;3.38;;
22697;SDS011;11516;51.612;7.510;2022-09-30T15:44:38;7.60;;;4.57;;
22697;SDS011;11516;51.612;7.510;2022-09-30T15:47:06;5.43;;;3.67;;
22697;SDS011;11516;51.612;7.510;2022-09-30T15:55:00;5.53;;;3.40;;
22697;SDS011;11516;51.612;7.510;2022-09-30T15:57:42;8.38;;;4.90;;
22697;SDS011;11516;51.612;7.510;2022-09-30T16:03:07;12.05;;;8.13;;
22697;SDS011;11516;51.612;7.510;2022-09-30T16:05:42;6.35;;;3.80;;
22697;SDS011;11516;51.612;7.510;2022-09-30T16:08:18;6.88;;;2.72;;
22697;SDS011;11516;51.612;7.510;2022-09-30T16:10:53;4.30;;;2.60;;
22697;SDS011;11516;51.612;7.510;2022-09-30T16:13:22;6.57;;;2.75;;
22697;SDS011;11516;51.612;7.510;2022-09-30T16:15:53;3.58;;;2.85;;
22697;SDS011;11516;51.612;7.510;2022-09-30T16:18:23;6.82;;;4.28;;
22697;SDS011;11516;51.612;7.510;2022-09-30T16:20:58;4.23;;;3.27;;
22697;SDS011;11516;51.612;7.510;2022-09-30T16:23:25;8.30;;;4.35;;
22697;SDS011;11516;51.612;7.510;2022-09-30T16:28:57;5.30;;;3.72;;
22697;SDS011;11516;51.612;7.510;2022-09-30T16:31:27;6.28;;;4.32;;
22697;SDS011;11516;51.612;7.510;2022-09-30T16:33:56;4.30;;;3.33;;
22697;SDS011;11516;51.612;7.510;2022-09-30T16:36:22;4.95;;;3.75;;
22697;SDS011;11516;51.612;7.510;2022-09-30T16:38:48;7.03;;;4.60;;
22697;SDS011;11516;51.612;7.510;2022-09-30T16:41:13;8.77;;;5.30;;
22697;SDS011;11516;51.612;7.510;2022-09-30T16:43:39;10.80;;;7.82;;
22697;SDS011;11516;51.612;7.510;2022-09-30T16:46:05;9.20;;;6.63;;
22697;SDS011;11516;51.612;7.510;2022-09-30T16:48:30;7.60;;;4.90;;
22697;SDS011;11516;51.612;7.510;2022-09-30T16:53:40;5.28;;;3.70;;
22697;SDS011;11516;51.612;7.510;2022-09-30T16:56:17;5.70;;;2.93;;
22697;SDS011;11516;51.612;7.510;2022-09-30T16:58:43;13.57;;;9.80;;
22697;SDS011;11516;51.612;7.510;2022-09-30T17:01:20;9.10;;;6.00;;
22697;SDS011;11516;51.612;7.510;2022-09-30T17:03:46;12.57;;;7.63;;
22697;SDS011;11516;51.612;7.510;2022-09-30T17:06:13;9.77;;;6.83;;
22697;SDS011;11516;51.612;7.510;2022-09-30T17:08:41;16.52;;;10.55;;
22697;SDS011;11516;51.612;7.510;2022-09-30T17:11:06;15.57;;;6.77;;
22697;SDS011;11516;51.612;7.510;2022-09-30T17:13:32;11.07;;;7.27;;
22697;SDS011;11516;51.612;7.510;2022-09-30T17:15:57;8.70;;;6.37;;
22697;SDS011;11516;51.612;7.510;2022-09-30T17:18:25;35.53;;;22.63;;
22697;SDS011;11516;51.612;7.510;2022-09-30T17:20:51;34.08;;;22.38;;
22697;SDS011;11516;51.612;7.510;2022-09-30T17:23:18;22.98;;;14.70;;
22697;SDS011;11516;51.612;7.510;2022-09-30T17:25:45;20.60;;;13.48;;
22697;SDS011;11516;51.612;7.510;2022-09-30T17:28:11;16.45;;;11.25;;
22697;SDS011;11516;51.612;7.510;2022-09-30T17:30:37;15.05;;;11.25;;
22697;SDS011;11516;51.612;7.510;2022-09-30T17:33:05;52.33;;;35.55;;
22697;SDS011;11516;51.612;7.510;2022-09-30T17:35:31;22.27;;;15.75;;
22697;SDS011;11516;51.612;7.510;2022-09-30T17:37:57;12.35;;;8.32;;
22697;SDS011;11516;51.612;7.510;2022-09-30T17:40:24;6.97;;;4.68;;
22697;SDS011;11516;51.612;7.510;2022-09-30T17:43:08;4.80;;;3.70;;
22697;SDS011;11516;51.612;7.510;2022-09-30T17:45:40;9.00;;;4.38;;
22697;SDS011;11516;51.612;7.510;2022-09-30T17:48:08;6.75;;;4.93;;
22697;SDS011;11516;51.612;7.510;2022-09-30T17:50:35;7.28;;;4.20;;
22697;SDS011;11516;51.612;7.510;2022-09-30T17:53:02;7.57;;;4.90;;
22697;SDS011;11516;51.612;7.510;2022-09-30T17:55:28;8.43;;;4.97;;
22697;SDS011;11516;51.612;7.510;2022-09-30T17:57:54;7.65;;;4.65;;
22697;SDS011;11516;51.612;7.510;2022-09-30T18:00:20;8.90;;;5.35;;
22697;SDS011;11516;51.612;7.510;2022-09-30T18:02:46;9.40;;;5.70;;
22697;SDS011;11516;51.612;7.510;2022-09-30T18:05:12;8.88;;;5.20;;
22697;SDS011;11516;51.612;7.510;2022-09-30T18:07:38;9.23;;;5.30;;
22697;SDS011;11516;51.612;7.510;2022-09-30T18:10:04;7.90;;;5.27;;
22697;SDS011;11516;51.612;7.510;2022-09-30T18:12:32;9.93;;;5.35;;
22697;SDS011;11516;51.612;7.510;2022-09-30T18:14:58;10.07;;;5.53;;
22697;SDS011;11516;51.612;7.510;2022-09-30T18:17:23;10.57;;;5.67;;
22697;SDS011;11516;51.612;7.510;2022-09-30T18:19:49;7.33;;;5.00;;
22697;SDS011;11516;51.612;7.510;2022-09-30T18:22:14;9.40;;;5.03;;
22697;SDS011;11516;51.612;7.510;2022-09-30T18:24:40;9.00;;;4.65;;
22697;SDS011;11516;51.612;7.510;2022-09-30T18:27:24;8.00;;;4.53;;
22697;SDS011;11516;51.612;7.510;2022-09-30T18:29:50;9.68;;;5.63;;
22697;SDS011;11516;51.612;7.510;2022-09-30T18:32:17;9.77;;;6.55;;
22697;SDS011;11516;51.612;7.510;2022-09-30T18:34:42;8.50;;;6.10;;
22697;SDS011;11516;51.612;7.510;2022-09-30T18:37:08;10.27;;;6.07;;
22697;SDS011;11516;51.612;7.510;2022-09-30T18:39:33;8.07;;;5.30;;
22697;SDS011;11516;51.612;7.510;2022-09-30T18:42:01;8.98;;;4.85;;
22697;SDS011;11516;51.612;7.510;2022-09-30T18:44:27;7.65;;;5.07;;
22697;SDS011;11516;51.612;7.510;2022-09-30T18:46:53;6.78;;;4.72;;
22697;SDS011;11516;51.612;7.510;2022-09-30T18:49:19;6.37;;;4.40;;
22697;SDS011;11516;51.612;7.510;2022-09-30T18:51:46;9.15;;;5.30;;
22697;SDS011;11516;51.612;7.510;2022-09-30T18:54:12;8.75;;;5.13;;
22697;SDS011;11516;51.612;7.510;2022-09-30T18:56:39;6.33;;;5.03;;
22697;SDS011;11516;51.612;7.510;2022-09-30T18:59:07;7.43;;;5.22;;